Time;durP1;ratioP1;P1;durP2;ratioP2;P2;SDS_P1;SDS_P2;PMS_P1;PMS_P2;Temp;Humidity;BMP_temperature;BMP_pressure;BME280_temperature;BME280_humidity;BME280_pressure;Samples;Min_cycle;Max_cycle;Signal;HPM_P1;HPM_P2
2023/06/27 00:00:10;;;;;;;22.90;4.30;;;16.00;99.90;;;;;;5013412;28;20430;-54
2023/06/27 00:02:36;;;;;;;11.53;3.30;;;16.10;99.90;;;;;;5015420;28;20416;-54
2023/06/27 00:05:01;;;;;;;10.20;3.73;;;16.30;99.90;;;;;;5017004;28;20466;-53
2023/06/27 00:07:28;;;;;;;15.93;3.73;;;16.40;52.40;;;;;;5016877;28;20654;-50
2023/06/27 00:09:58;;;;;;;13.23;3.87;;;16.30;26.60;;;;;;5016932;28;20192;-52
2023/06/27 00:12:24;;;;;;;18.33;4.37;;;16.20;32.70;;;;;;5016866;28;20425;-52
2023/06/27 00:14:50;;;;;;;13.33;3.60;;;16.10;25.00;;;;;;5017135;28;20468;-51
2023/06/27 00:17:16;;;;;;;12.60;3.40;;;16.10;81.20;;;;;;5016556;28;20192;-51
2023/06/27 00:19:44;;;;;;;15.63;4.00;;;16.10;90.00;;;;;;5016944;28;20185;-52
2023/06/27 00:22:10;;;;;;;8.53;3.53;;;16.10;99.90;;;;;;5016935;28;20738;-51
2023/06/27 00:24:37;;;;;;;16.30;3.80;;;16.00;88.70;;;;;;5016387;28;20425;-53
2023/06/27 00:27:03;;;;;;;9.63;3.37;;;15.90;55.20;;;;;;5016687;28;20831;-52
2023/06/27 00:29:29;;;;;;;14.20;3.40;;;15.80;99.90;;;;;;5016536;28;20478;-53
2023/06/27 00:31:55;;;;;;;10.23;3.27;;;16.00;99.90;;;;;;5016304;28;20408;-52
2023/06/27 00:34:21;;;;;;;10.90;3.70;;;16.10;99.90;;;;;;5015930;28;20217;-52
2023/06/27 00:36:46;;;;;;;10.00;3.30;;;16.10;99.90;;;;;;5016176;28;20424;-52
2023/06/27 00:39:12;;;;;;;11.10;3.80;;;16.10;97.90;;;;;;5015994;28;20551;-52
2023/06/27 00:41:38;;;;;;;11.00;3.70;;;16.10;99.90;;;;;;5016258;28;20182;-52
2023/06/27 00:44:07;;;;;;;9.40;3.53;;;16.00;99.90;;;;;;5016116;28;20216;-54
2023/06/27 00:46:37;;;;;;;13.10;3.10;;;16.10;99.90;;;;;;5016235;28;20203;-53
2023/06/27 00:49:07;;;;;;;11.37;3.20;;;16.20;99.90;;;;;;5016189;28;20463;-51
2023/06/27 00:51:33;;;;;;;12.83;3.40;;;16.10;90.50;;;;;;5016256;28;20424;-51
2023/06/27 00:53:58;;;;;;;19.67;3.63;;;16.00;99.90;;;;;;5015930;28;20583;-53
2023/06/27 00:56:28;;;;;;;16.57;3.40;;;15.80;99.90;;;;;;5016099;28;20507;-52
2023/06/27 00:58:57;;;;;;;12.90;3.57;;;15.70;99.90;;;;;;5015453;28;20693;-52
2023/06/27 01:01:22;;;;;;;13.60;3.50;;;15.70;99.90;;;;;;5015820;28;20430;-52
2023/06/27 01:03:49;;;;;;;8.93;2.80;;;15.50;99.90;;;;;;5015825;28;20495;-52
2023/06/27 01:06:28;;;;;;;12.60;3.20;;;15.40;99.90;;;;;;5015783;28;20190;-53
2023/06/27 01:09:02;;;;;;;8.77;3.47;;;15.40;99.90;;;;;;5015676;28;20773;-52
2023/06/27 01:11:38;;;;;;;12.03;3.03;;;15.40;99.90;;;;;;5015984;28;20502;-54
2023/06/27 01:14:04;;;;;;;7.37;3.17;;;15.50;1.00;;;;;;5015331;28;20467;-53
2023/06/27 01:16:31;;;;;;;5.73;2.97;;;15.60;1.00;;;;;;5015748;28;20463;-51
2023/06/27 01:18:58;;;;;;;9.10;3.20;;;15.80;1.00;;;;;;5015380;28;20880;-52
2023/06/27 01:21:28;;;;;;;7.17;2.80;;;15.70;99.90;;;;;;5015607;28;20413;-53
2023/06/27 01:23:55;;;;;;;9.90;2.73;;;15.60;99.90;;;;;;5015925;28;20452;-52
2023/06/27 01:26:22;;;;;;;11.23;3.57;;;15.60;99.90;;;;;;5015686;28;20470;-51
2023/06/27 01:28:47;;;;;;;11.20;3.13;;;15.60;99.90;;;;;;5015327;28;20424;-53
2023/06/27 01:31:48;;;;;;;11.50;2.90;;;15.60;99.90;;;;;;5015658;28;20432;-52
2023/06/27 01:34:23;;;;;;;11.77;3.20;;;15.60;99.90;;;;;;5014882;28;20690;-51
2023/06/27 01:36:58;;;;;;;13.77;3.77;;;15.50;99.90;;;;;;5015388;28;20435;-52
2023/06/27 01:39:32;;;;;;;17.07;4.30;;;15.40;1.00;;;;;;5015415;28;20403;-53
2023/06/27 01:42:14;;;;;;;8.30;3.47;;;15.40;1.00;;;;;;5015462;28;20410;-51
2023/06/27 01:44:43;;;;;;;16.10;8.77;;;15.30;1.00;;;;;;5015338;28;20399;-54
2023/06/27 01:47:10;;;;;;;15.70;4.70;;;15.30;41.30;;;;;;5015334;28;20506;-52
2023/06/27 01:49:35;;;;;;;9.40;4.33;;;15.30;92.70;;;;;;5015290;28;20424;-52
2023/06/27 01:52:01;;;;;;;17.50;4.40;;;15.30;99.90;;;;;;5015129;28;20412;-54
2023/06/27 01:54:27;;;;;;;11.13;3.80;;;15.20;99.90;;;;;;5014491;28;20240;-52
2023/06/27 01:56:52;;;;;;;11.40;4.03;;;15.20;99.90;;;;;;5014670;28;20193;-52
2023/06/27 01:59:18;;;;;;;46.43;24.37;;;15.20;99.90;;;;;;5015099;28;20417;-51
2023/06/27 02:01:43;;;;;;;17.00;7.40;;;15.20;99.90;;;;;;5014837;28;20231;-51
2023/06/27 02:04:09;;;;;;;11.33;4.03;;;15.20;99.90;;;;;;5014996;28;20190;-51
2023/06/27 02:06:35;;;;;;;14.63;4.13;;;15.20;94.60;;;;;;5014856;28;20183;-51
2023/06/27 02:09:00;;;;;;;7.87;3.57;;;15.30;99.90;;;;;;5014436;28;20562;-51
2023/06/27 02:11:26;;;;;;;10.30;3.70;;;15.50;1.00;;;;;;5014791;28;20284;-52
2023/06/27 02:13:52;;;;;;;11.97;3.87;;;15.50;99.90;;;;;;5014389;28;20226;-51
2023/06/27 02:16:17;;;;;;;7.70;3.57;;;15.50;99.90;;;;;;5014471;28;20979;-52
2023/06/27 02:18:43;;;;;;;15.23;4.10;;;15.50;99.90;;;;;;5014532;28;20515;-51
2023/06/27 02:21:10;;;;;;;15.17;5.03;;;15.50;99.90;;;;;;5014615;28;20180;-52
2023/06/27 02:23:36;;;;;;;7.30;3.80;;;15.50;1.00;;;;;;5014448;28;20596;-51
2023/06/27 02:26:03;;;;;;;15.47;4.17;;;15.50;12.10;;;;;;5013625;28;20508;-50
2023/06/27 02:28:29;;;;;;;18.23;3.67;;;15.60;99.90;;;;;;5014303;28;20205;-52
2023/06/27 02:30:55;;;;;;;11.47;3.73;;;15.50;39.00;;;;;;5014260;28;20420;-51
2023/06/27 02:33:20;;;;;;;13.60;3.93;;;15.40;99.90;;;;;;5014127;28;20272;-53
2023/06/27 02:35:46;;;;;;;9.80;3.77;;;15.20;58.70;;;;;;5013742;28;20212;-52
2023/06/27 02:38:12;;;;;;;11.33;3.80;;;15.10;99.90;;;;;;5014342;28;20533;-53
2023/06/27 02:40:37;;;;;;;11.67;3.70;;;15.10;1.00;;;;;;5013839;28;20687;-54
2023/06/27 02:43:04;;;;;;;11.80;3.93;;;15.20;1.00;;;;;;5014369;28;20211;-53
2023/06/27 02:45:30;;;;;;;11.10;3.90;;;15.20;99.90;;;;;;5013789;28;20285;-53
2023/06/27 02:47:55;;;;;;;10.13;3.47;;;15.10;99.90;;;;;;5013596;28;20558;-51
2023/06/27 02:50:21;;;;;;;9.40;3.40;;;15.20;1.00;;;;;;5013756;28;20230;-52
2023/06/27 02:52:47;;;;;;;10.13;3.30;;;15.10;99.90;;;;;;5013821;28;20251;-53
2023/06/27 02:55:12;;;;;;;11.33;3.67;;;15.00;99.90;;;;;;5013953;28;20215;-52
2023/06/27 02:57:39;;;;;;;16.23;3.83;;;15.00;1.00;;;;;;5013992;28;20230;-53
2023/06/27 03:00:06;;;;;;;5.80;2.87;;;15.00;1.00;;;;;;5014314;28;20502;-52
2023/06/27 03:02:31;;;;;;;8.00;3.47;;;15.00;1.00;;;;;;5013799;28;20273;-50
2023/06/27 03:04:57;;;;;;;8.50;3.47;;;15.00;1.00;;;;;;5014105;28;20492;-51
2023/06/27 03:07:22;;;;;;;7.77;3.03;;;15.00;1.00;;;;;;5013912;28;20239;-51
2023/06/27 03:09:48;;;;;;;13.53;3.60;;;15.00;1.00;;;;;;5014048;28;20207;-52
2023/06/27 03:12:13;;;;;;;12.00;3.20;;;14.90;99.90;;;;;;5013552;28;20236;-52
2023/06/27 03:14:39;;;;;;;10.47;3.40;;;14.80;1.00;;;;;;5014000;28;20213;-52
2023/06/27 03:17:05;;;;;;;9.70;3.07;;;14.90;99.90;;;;;;5013208;28;20212;-54
2023/06/27 03:19:30;;;;;;;6.77;3.27;;;14.90;1.00;;;;;;5013429;28;20265;-51
2023/06/27 03:21:56;;;;;;;7.50;3.20;;;14.90;99.90;;;;;;5014101;28;20181;-52
2023/06/27 03:24:21;;;;;;;5.53;2.60;;;14.90;1.00;;;;;;5013726;28;20231;-53
2023/06/27 03:26:47;;;;;;;12.10;3.30;;;15.00;99.90;;;;;;5013543;28;20188;-53
2023/06/27 03:29:13;;;;;;;9.50;3.47;;;15.10;99.90;;;;;;5013076;28;20189;-52
2023/06/27 03:31:38;;;;;;;9.80;3.63;;;15.10;1.00;;;;;;5013816;28;20334;-53
2023/06/27 03:34:04;;;;;;;7.13;2.90;;;14.90;1.00;;;;;;5013346;28;20216;-52
2023/06/27 03:36:33;;;;;;;5.20;2.83;;;14.90;1.00;;;;;;5015484;28;20223;-51
2023/06/27 03:38:59;;;;;;;5.13;2.97;;;14.80;66.40;;;;;;5017585;28;20188;-52
2023/06/27 03:41:24;;;;;;;11.50;3.53;;;14.90;99.90;;;;;;5017640;28;20542;-52
2023/06/27 03:43:50;;;;;;;8.10;2.53;;;14.90;80.50;;;;;;5017677;28;20185;-53
2023/06/27 03:46:16;;;;;;;8.20;2.90;;;15.00;19.60;;;;;;5017367;28;20593;-52
2023/06/27 03:48:41;;;;;;;5.23;2.87;;;15.00;1.00;;;;;;5017424;28;20188;-52
2023/06/27 03:51:07;;;;;;;3.67;2.63;;;15.00;1.00;;;;;;5017277;28;20176;-51
2023/06/27 03:53:33;;;;;;;7.20;2.50;;;15.00;1.00;;;;;;5016878;28;20237;-52
2023/06/27 03:56:00;;;;;;;8.27;2.73;;;15.10;1.00;;;;;;5017081;28;20229;-53
2023/06/27 03:58:26;;;;;;;4.70;2.90;;;15.00;1.00;;;;;;5017227;28;20215;-52
2023/06/27 04:00:55;;;;;;;10.33;2.80;;;15.00;1.00;;;;;;5017424;28;20479;-52
2023/06/27 04:03:21;;;;;;;9.03;2.83;;;15.10;1.00;;;;;;5017380;28;20415;-53
2023/06/27 04:05:47;;;;;;;7.43;2.87;;;15.20;1.00;;;;;;5016698;28;20526;-52
2023/06/27 04:08:12;;;;;;;9.33;2.80;;;15.20;99.90;;;;;;5017232;28;20231;-52
2023/06/27 04:10:42;;;;;;;5.00;2.93;;;15.00;99.90;;;;;;5016898;28;20920;-52
2023/06/27 04:13:08;;;;;;;4.50;3.00;;;15.00;1.00;;;;;;5017098;28;20235;-52
2023/06/27 04:15:39;;;;;;;5.53;2.73;;;15.00;1.00;;;;;;5016733;28;20456;-52
2023/06/27 04:18:07;;;;;;;12.53;3.07;;;15.10;1.00;;;;;;5016959;28;20470;-52
2023/06/27 04:20:33;;;;;;;4.80;2.80;;;15.10;1.00;;;;;;5016589;28;20482;-51
2023/06/27 04:22:59;;;;;;;6.23;3.10;;;15.20;1.00;;;;;;5016763;28;20416;-52
2023/06/27 04:25:31;;;;;;;3.50;2.17;;;15.40;1.00;;;;;;5016730;28;20192;-51
2023/06/27 04:27:56;;;;;;;8.50;2.80;;;15.50;1.00;;;;;;5016535;28;20197;-51
2023/06/27 04:30:22;;;;;;;4.43;2.60;;;15.50;99.90;;;;;;5016410;28;20423;-52
2023/06/27 04:32:50;;;;;;;4.73;2.20;;;15.60;99.90;;;;;;5016550;28;20519;-52
2023/06/27 04:35:19;;;;;;;10.23;3.20;;;15.60;99.90;;;;;;5016248;28;20224;-50
2023/06/27 04:37:46;;;;;;;4.03;2.30;;;15.70;99.90;;;;;;5016305;28;20975;-53
2023/06/27 04:40:12;;;;;;;4.70;2.30;;;15.70;99.90;;;;;;5016700;28;20421;-52
2023/06/27 04:42:38;;;;;;;5.00;2.30;;;15.50;99.90;;;;;;5015294;28;20791;-52
2023/06/27 04:45:05;;;;;;;4.57;2.23;;;15.60;99.90;;;;;;5016358;28;20439;-52
2023/06/27 04:47:32;;;;;;;7.87;2.80;;;15.60;99.90;;;;;;5015713;28;20424;-53
2023/06/27 04:49:58;;;;;;;11.27;2.70;;;15.60;99.90;;;;;;5016288;28;20436;-52
2023/06/27 04:52:24;;;;;;;7.77;2.43;;;15.70;99.90;;;;;;5015712;28;20830;-51
2023/06/27 04:54:51;;;;;;;4.80;2.63;;;15.70;99.90;;;;;;5015981;28;20496;-51
2023/06/27 04:57:17;;;;;;;9.70;3.07;;;15.70;99.90;;;;;;5015701;28;20247;-50
2023/06/27 04:59:43;;;;;;;4.87;2.47;;;15.50;99.90;;;;;;5015789;28;20465;-51
2023/06/27 05:02:09;;;;;;;4.90;2.37;;;15.50;99.90;;;;;;5015980;28;20809;-52
2023/06/27 05:04:35;;;;;;;3.80;2.30;;;15.20;99.90;;;;;;5015722;28;20938;-52
2023/06/27 05:07:01;;;;;;;3.97;2.67;;;15.10;1.00;;;;;;5015794;28;20424;-52
2023/06/27 05:09:27;;;;;;;5.67;2.50;;;15.10;1.00;;;;;;5015467;28;20476;-52
2023/06/27 05:11:52;;;;;;;5.60;2.83;;;15.20;1.00;;;;;;5015709;28;20185;-52
2023/06/27 05:14:18;;;;;;;5.13;2.83;;;15.10;99.90;;;;;;5015581;28;20351;-52
2023/06/27 05:16:43;;;;;;;4.90;2.37;;;15.30;99.90;;;;;;5015550;28;20212;-52
2023/06/27 05:19:09;;;;;;;11.43;2.70;;;15.30;1.00;;;;;;5015770;28;20182;-52
2023/06/27 05:21:35;;;;;;;5.53;2.50;;;15.60;1.00;;;;;;5015763;28;20633;-54
2023/06/27 05:24:00;;;;;;;4.87;2.63;;;15.80;1.00;;;;;;5015108;28;20181;-53
2023/06/27 05:26:26;;;;;;;4.23;3.27;;;16.00;1.00;;;;;;5015579;28;20191;-54
2023/06/27 05:28:51;;;;;;;10.27;4.40;;;15.80;39.50;;;;;;5015544;28;20185;-51
2023/06/27 05:31:17;;;;;;;6.40;3.53;;;15.60;99.90;;;;;;5015220;28;20183;-51
2023/06/27 05:33:44;;;;;;;8.50;4.07;;;15.40;1.00;;;;;;5015452;28;20183;-54
2023/06/27 05:36:10;;;;;;;10.67;4.70;;;15.30;1.00;;;;;;5015328;28;20204;-53
2023/06/27 05:38:35;;;;;;;7.70;3.57;;;15.40;19.70;;;;;;5015647;28;20904;-52
2023/06/27 05:41:02;;;;;;;8.10;3.90;;;15.50;36.40;;;;;;5015079;28;20184;-53
2023/06/27 05:43:28;;;;;;;8.37;3.80;;;15.60;1.00;;;;;;5015186;28;20193;-53
2023/06/27 05:45:53;;;;;;;7.53;4.10;;;15.70;99.90;;;;;;5015103;28;20474;-52
2023/06/27 05:48:19;;;;;;;15.93;4.57;;;15.70;99.90;;;;;;5014942;28;20190;-52
2023/06/27 05:50:44;;;;;;;8.70;4.30;;;15.60;13.90;;;;;;5014928;28;20180;-51
2023/06/27 05:53:10;;;;;;;6.47;3.87;;;15.50;99.90;;;;;;5014856;28;20237;-51
2023/06/27 05:55:35;;;;;;;9.77;3.93;;;15.60;99.90;;;;;;5015220;28;20300;-52
2023/06/27 05:58:01;;;;;;;10.03;3.77;;;16.00;1.00;;;;;;5014928;28;20622;-53
2023/06/27 06:00:27;;;;;;;5.10;3.20;;;16.40;99.90;;;;;;5014152;28;20240;-51
2023/06/27 06:02:53;;;;;;;9.20;4.20;;;16.70;42.80;;;;;;5014691;28;20233;-53
2023/06/27 06:05:19;;;;;;;6.20;3.00;;;17.00;1.00;;;;;;5014763;28;20924;-52
2023/06/27 06:07:45;;;;;;;12.03;3.53;;;17.20;99.90;;;;;;5014918;28;20186;-51
2023/06/27 06:10:11;;;;;;;5.77;3.10;;;17.40;99.90;;;;;;5015017;28;20653;-54
2023/06/27 06:12:38;;;;;;;7.47;2.83;;;17.60;99.90;;;;;;5014656;28;20188;-53
2023/06/27 06:15:04;;;;;;;8.07;2.60;;;17.80;99.90;;;;;;5013988;28;20466;-52
2023/06/27 06:17:29;;;;;;;7.30;2.67;;;18.00;83.90;;;;;;5014268;28;20438;-53
2023/06/27 06:19:55;;;;;;;7.40;2.37;;;18.20;55.10;;;;;;5014531;28;20429;-50
2023/06/27 06:22:21;;;;;;;4.90;2.60;;;18.40;38.80;;;;;;5014450;28;20679;-52
2023/06/27 06:24:46;;;;;;;7.17;2.47;;;18.60;9.30;;;;;;5014793;28;20540;-53
2023/06/27 06:27:12;;;;;;;4.83;2.70;;;18.70;20.50;;;;;;5014437;28;20202;-52
2023/06/27 06:29:38;;;;;;;6.63;2.70;;;18.80;1.00;;;;;;5014151;28;20186;-52
2023/06/27 06:32:04;;;;;;;10.73;2.67;;;18.80;1.00;;;;;;5014042;28;20269;-50
2023/06/27 06:34:29;;;;;;;6.70;2.50;;;18.70;1.00;;;;;;5013665;28;20212;-52
2023/06/27 06:36:55;;;;;;;2.70;1.93;;;18.70;1.00;;;;;;5014263;28;20422;-51
2023/06/27 06:39:20;;;;;;;4.03;2.03;;;18.80;1.00;;;;;;5013824;28;20213;-51
2023/06/27 06:41:46;;;;;;;5.33;2.10;;;18.90;1.00;;;;;;5014340;28;20215;-52
2023/06/27 06:44:12;;;;;;;10.17;2.83;;;19.00;1.00;;;;;;5014127;28;20190;-53
2023/06/27 06:46:38;;;;;;;6.93;2.37;;;19.20;1.00;;;;;;5014374;28;20187;-52
2023/06/27 06:49:04;;;;;;;8.77;2.97;;;19.40;1.00;;;;;;5012842;28;20238;-52
2023/06/27 06:51:29;;;;;;;4.13;2.20;;;19.50;1.00;;;;;;5013934;28;20422;-52
2023/06/27 06:53:55;;;;;;;8.17;2.33;;;19.70;1.00;;;;;;5013590;28;20239;-52
2023/06/27 06:56:21;;;;;;;6.87;2.40;;;19.80;1.00;;;;;;5013428;28;20233;-52
2023/06/27 06:58:47;;;;;;;8.13;2.37;;;20.00;1.00;;;;;;5012746;28;20184;-52
2023/06/27 07:01:12;;;;;;;4.60;1.90;;;20.30;1.00;;;;;;5013769;28;20193;-52
2023/06/27 07:03:38;;;;;;;7.73;2.03;;;20.50;1.00;;;;;;5014196;28;20415;-52
2023/06/27 07:06:03;;;;;;;6.87;2.40;;;20.70;1.00;;;;;;5014002;28;20186;-52
2023/06/27 07:08:29;;;;;;;4.00;2.00;;;20.90;1.00;;;;;;5014016;28;20198;-52
2023/06/27 07:10:55;;;;;;;6.47;2.27;;;20.90;1.00;;;;;;5014664;28;20179;-52
2023/06/27 07:13:20;;;;;;;5.80;2.00;;;20.90;1.00;;;;;;5018321;28;20187;-52
2023/06/27 07:15:46;;;;;;;15.60;2.33;;;20.90;1.00;;;;;;5017727;28;20214;-52
2023/06/27 07:18:11;;;;;;;8.40;2.80;;;20.50;1.00;;;;;;5017864;28;20218;-52
2023/06/27 07:20:37;;;;;;;6.63;2.37;;;19.90;1.00;;;;;;5033132;28;20183;-52
2023/06/27 07:23:02;;;;;;;8.17;2.63;;;19.40;1.00;;;;;;5018127;28;20180;-52
2023/06/27 07:25:29;;;;;;;6.90;2.70;;;18.80;1.00;;;;;;5018067;28;20700;-51
2023/06/27 07:27:55;;;;;;;4.17;2.90;;;18.50;1.00;;;;;;5018158;28;20179;-52
2023/06/27 07:30:20;;;;;;;3.30;2.50;;;18.20;1.00;;;;;;5017614;28;20527;-53
2023/06/27 07:32:46;;;;;;;9.17;2.70;;;18.00;1.00;;;;;;5017603;28;20614;-53
2023/06/27 07:35:11;;;;;;;7.90;2.83;;;17.90;1.00;;;;;;5017721;28;20203;-52
2023/06/27 07:37:37;;;;;;;8.73;2.50;;;17.80;1.00;;;;;;5017501;28;20182;-52
2023/06/27 07:40:06;;;;;;;5.40;2.43;;;17.80;1.00;;;;;;5017086;28;20214;-53
2023/06/27 07:42:33;;;;;;;3.97;2.40;;;17.90;1.00;;;;;;5017524;28;20191;-53
2023/06/27 07:44:58;;;;;;;5.87;2.60;;;17.80;1.00;;;;;;5017540;28;20430;-53
2023/06/27 07:47:24;;;;;;;4.70;3.00;;;17.80;1.00;;;;;;5016983;28;20418;-53
2023/06/27 07:49:49;;;;;;;8.07;2.40;;;17.70;1.00;;;;;;5017556;28;20180;-53
2023/06/27 07:52:15;;;;;;;4.23;2.30;;;17.40;1.00;;;;;;5016964;28;20622;-53
2023/06/27 07:54:41;;;;;;;6.20;2.60;;;17.10;37.30;;;;;;5016987;28;20273;-52
2023/06/27 07:57:07;;;;;;;8.40;3.10;;;17.00;99.90;;;;;;5017082;28;20436;-52
2023/06/27 07:59:32;;;;;;;7.00;2.60;;;16.90;99.90;;;;;;5017306;28;20189;-53
2023/06/27 08:01:58;;;;;;;5.90;2.60;;;16.80;99.90;;;;;;5017589;28;20186;-54
2023/06/27 08:04:24;;;;;;;8.13;3.03;;;16.90;1.00;;;;;;5017122;28;20510;-54
2023/06/27 08:06:49;;;;;;;6.20;2.40;;;16.70;1.00;;;;;;5017091;28;20238;-52
2023/06/27 08:09:15;;;;;;;8.43;2.40;;;16.60;1.00;;;;;;5016982;28;20236;-52
2023/06/27 08:11:41;;;;;;;5.00;2.50;;;16.60;1.00;;;;;;5016828;28;20205;-54
2023/06/27 08:14:06;;;;;;;5.30;2.17;;;16.60;1.00;;;;;;5017036;28;20202;-53
2023/06/27 08:16:33;;;;;;;7.97;2.80;;;16.60;99.90;;;;;;5016765;28;20676;-51
2023/06/27 08:18:59;;;;;;;4.07;2.10;;;16.80;99.90;;;;;;5016773;28;20260;-51
2023/06/27 08:21:24;;;;;;;6.10;2.10;;;17.20;99.90;;;;;;5015855;28;20412;-51
2023/06/27 08:23:50;;;;;;;7.57;2.03;;;17.60;99.90;;;;;;5015513;28;20422;-50
2023/06/27 08:26:16;;;;;;;3.83;1.80;;;18.10;99.90;;;;;;5016796;28;20191;-53
2023/06/27 08:28:43;;;;;;;4.87;1.90;;;18.50;99.90;;;;;;5016484;28;20179;-53
2023/06/27 08:31:10;;;;;;;4.93;2.00;;;18.40;1.00;;;;;;5016320;28;20426;-52
2023/06/27 08:33:36;;;;;;;5.07;2.10;;;18.10;1.00;;;;;;5016185;28;20903;-52
2023/06/27 08:36:02;;;;;;;4.40;2.13;;;17.80;1.00;;;;;;5016692;28;20485;-52
2023/06/27 08:38:28;;;;;;;7.50;2.37;;;17.50;1.00;;;;;;5016009;28;20988;-52
2023/06/27 08:40:54;;;;;;;8.27;2.47;;;17.10;19.30;;;;;;5016585;28;20421;-52
2023/06/27 08:43:20;;;;;;;6.83;2.30;;;17.00;99.90;;;;;;5016480;28;20189;-51
2023/06/27 08:45:49;;;;;;;4.23;2.03;;;17.10;99.90;;;;;;5016564;28;20440;-52
2023/06/27 08:48:16;;;;;;;4.30;2.20;;;17.20;99.90;;;;;;5016253;28;20796;-52
2023/06/27 08:50:43;;;;;;;4.70;1.93;;;17.20;23.10;;;;;;5016258;28;20413;-53
2023/06/27 08:53:14;;;;;;;6.23;2.00;;;17.10;38.60;;;;;;5015822;28;20573;-51
2023/06/27 08:56:07;;;;;;;5.53;2.40;;;17.30;38.20;;;;;;5016166;28;20842;-51
2023/06/27 08:58:59;;;;;;;8.23;2.20;;;18.40;1.00;;;;;;5016140;28;20485;-52
2023/06/27 09:01:26;;;;;;;2.60;2.00;;;19.70;1.00;;;;;;5017934;28;20436;-52
2023/06/27 09:03:53;;;;;;;3.00;1.60;;;20.70;1.00;;;;;;5016108;28;20492;-51
2023/06/27 09:06:19;;;;;;;3.83;1.63;;;21.30;1.00;;;;;;5015950;28;20483;-51
2023/06/27 09:08:44;;;;;;;2.40;1.63;;;21.40;1.00;;;;;;5015718;28;20461;-51
2023/06/27 09:11:10;;;;;;;6.30;1.90;;;21.40;1.00;;;;;;5016021;28;20537;-51
2023/06/27 09:13:37;;;;;;;3.33;1.63;;;21.70;1.00;;;;;;5015854;28;20191;-52
2023/06/27 09:16:07;;;;;;;2.90;1.63;;;22.10;1.00;;;;;;5015851;28;20261;-51
2023/06/27 09:18:35;;;;;;;6.10;1.70;;;22.30;1.00;;;;;;5015953;28;20436;-49
2023/06/27 09:21:01;;;;;;;6.73;1.60;;;22.40;1.00;;;;;;5015845;28;20426;-49
2023/06/27 09:23:28;;;;;;;4.00;1.50;;;22.50;1.00;;;;;;5015480;28;20423;-49
2023/06/27 09:26:11;;;;;;;10.57;2.10;;;22.40;1.00;;;;;;5015645;28;20193;-51
2023/06/27 09:28:58;;;;;;;3.40;1.30;;;22.20;1.00;;;;;;5015082;28;20477;-52
2023/06/27 09:31:24;;;;;;;5.83;1.57;;;21.70;1.00;;;;;;5015113;28;20436;-51
2023/06/27 09:33:49;;;;;;;2.87;1.67;;;21.70;1.00;;;;;;5015414;28;20509;-51
2023/06/27 09:36:32;;;;;;;2.60;1.20;;;22.10;1.00;;;;;;5015226;28;20233;-51
2023/06/27 09:39:00;;;;;;;6.60;1.73;;;22.40;1.00;;;;;;5015102;28;20224;-51
2023/06/27 09:41:44;;;;;;;4.93;1.30;;;22.70;1.00;;;;;;5015090;28;20897;-51
2023/06/27 09:44:25;;;;;;;6.33;1.70;;;22.50;1.00;;;;;;5015523;28;20435;-51
2023/06/27 09:46:54;;;;;;;5.13;1.30;;;22.80;1.00;;;;;;5012057;28;20469;-50
2023/06/27 09:49:21;;;;;;;7.80;1.40;;;22.90;1.00;;;;;;5013293;28;20241;-50
2023/06/27 09:51:49;;;;;;;2.50;1.47;;;22.90;1.00;;;;;;5015264;28;20424;-48
2023/06/27 09:54:21;;;;;;;3.27;1.47;;;23.00;1.00;;;;;;5014633;28;20501;-48
2023/06/27 09:56:51;;;;;;;6.47;1.60;;;23.40;1.00;;;;;;5014726;28;20457;-48
2023/06/27 09:59:19;;;;;;;5.47;2.10;;;23.60;1.00;;;;;;5015073;28;20418;-47
2023/06/27 10:01:45;;;;;;;7.47;1.40;;;23.50;1.00;;;;;;5015074;28;20420;-47
2023/06/27 10:04:10;;;;;;;5.23;2.20;;;23.90;1.00;;;;;;5015126;28;20417;-48
2023/06/27 10:06:37;;;;;;;3.37;1.30;;;24.20;1.00;;;;;;5015062;28;20276;-48
2023/06/27 10:09:03;;;;;;;8.30;1.40;;;24.50;1.00;;;;;;5014737;28;20668;-47
2023/06/27 10:11:29;;;;;;;3.50;1.50;;;23.90;1.00;;;;;;5014753;28;20572;-47
2023/06/27 10:13:55;;;;;;;5.17;1.43;;;23.40;1.00;;;;;;5014685;28;20515;-47
2023/06/27 10:16:20;;;;;;;4.20;1.30;;;23.00;1.00;;;;;;5014746;28;20181;-47
2023/06/27 10:18:49;;;;;;;5.20;1.43;;;22.40;1.00;;;;;;5014518;28;20923;-47
2023/06/27 10:21:17;;;;;;;3.10;1.20;;;22.20;1.00;;;;;;5014896;28;20199;-47
2023/06/27 10:23:48;;;;;;;8.40;1.90;;;22.60;1.00;;;;;;5014709;28;20499;-49
2023/06/27 10:26:14;;;;;;;3.00;1.43;;;22.30;1.00;;;;;;5014862;28;20750;-49
2023/06/27 10:28:40;;;;;;;3.80;1.60;;;22.30;1.00;;;;;;5014428;28;20424;-46
2023/06/27 10:31:06;;;;;;;8.50;1.40;;;22.90;1.00;;;;;;5014239;28;20683;-47
2023/06/27 10:33:32;;;;;;;2.70;1.20;;;23.50;1.00;;;;;;5014254;28;20429;-47
2023/06/27 10:36:00;;;;;;;3.37;1.33;;;24.10;1.00;;;;;;5014050;28;20218;-47
2023/06/27 10:38:37;;;;;;;2.30;1.30;;;24.20;1.00;;;;;;5013807;28;20437;-46
2023/06/27 10:41:06;;;;;;;4.07;1.40;;;24.10;1.00;;;;;;5014542;28;20418;-46
2023/06/27 10:43:47;;;;;;;4.27;1.80;;;23.90;1.00;;;;;;5014141;28;20430;-47
2023/06/27 10:46:33;;;;;;;7.70;1.73;;;23.20;1.00;;;;;;5013630;28;20422;-47
2023/06/27 10:49:06;;;;;;;5.13;1.53;;;22.40;1.00;;;;;;5013826;28;20434;-48
2023/06/27 10:51:41;;;;;;;7.43;1.80;;;21.80;1.00;;;;;;5014354;28;20436;-49
2023/06/27 10:54:11;;;;;;;4.63;1.70;;;21.20;1.00;;;;;;5013631;28;20469;-49
2023/06/27 10:56:41;;;;;;;5.13;1.53;;;20.90;1.00;;;;;;5013907;28;20417;-49
2023/06/27 10:59:17;;;;;;;8.37;1.60;;;21.60;1.00;;;;;;5014059;28;20502;-47
2023/06/27 11:02:04;;;;;;;6.83;1.60;;;23.00;1.00;;;;;;5013846;28;20414;-47
2023/06/27 11:04:42;;;;;;;3.57;1.37;;;23.50;1.00;;;;;;5013854;28;20488;-45
2023/06/27 11:07:19;;;;;;;5.43;1.60;;;23.20;1.00;;;;;;5013816;28;20514;-46
2023/06/27 11:09:55;;;;;;;6.50;1.80;;;22.30;1.00;;;;;;5013822;28;20744;-48
2023/06/27 11:12:21;;;;;;;4.73;1.50;;;22.00;1.00;;;;;;5013983;28;20416;-48
2023/06/27 11:14:53;;;;;;;4.23;1.50;;;22.00;1.00;;;;;;5013645;28;20576;-48
2023/06/27 11:17:19;;;;;;;4.90;1.37;;;21.60;1.00;;;;;;5014084;28;20408;-49
2023/06/27 11:19:44;;;;;;;4.07;1.90;;;22.10;1.00;;;;;;5014232;28;20502;-49
2023/06/27 11:22:11;;;;;;;17.70;12.40;;;22.90;1.00;;;;;;5014250;28;20204;-49
2023/06/27 11:24:38;;;;;;;5.07;2.60;;;23.80;99.90;;;;;;5013528;28;20588;-47
2023/06/27 11:27:06;;;;;;;5.73;1.90;;;24.60;99.90;;;;;;5013909;28;20414;-48
2023/06/27 11:29:33;;;;;;;6.07;1.33;;;24.80;99.90;;;;;;5013871;28;20756;-48
2023/06/27 11:31:59;;;;;;;4.97;1.30;;;24.80;99.90;;;;;;5013622;28;20948;-47
2023/06/27 11:34:25;;;;;;;3.78;1.20;;;24.60;99.90;;;;;;5012865;28;20427;-48
2023/06/27 11:36:51;;;;;;;4.67;1.60;;;24.70;99.90;;;;;;5013120;28;20200;-48
2023/06/27 11:39:17;;;;;;;4.13;1.47;;;24.30;1.00;;;;;;5012885;28;20418;-47
2023/06/27 11:41:44;;;;;;;3.47;1.10;;;23.70;99.90;;;;;;5013657;28;20183;-49
2023/06/27 11:44:11;;;;;;;2.60;1.27;;;23.20;99.90;;;;;;5012995;28;20562;-51
2023/06/27 11:46:55;;;;;;;8.10;1.70;;;22.20;99.90;;;;;;5013295;28;21065;-48
2023/06/27 11:49:22;;;;;;;4.33;1.70;;;21.40;99.90;;;;;;5013492;28;20406;-51
2023/06/27 11:51:47;;;;;;;5.50;1.87;;;20.70;99.90;;;;;;5013361;28;20964;-50
2023/06/27 11:54:18;;;;;;;4.40;1.50;;;20.40;99.90;;;;;;5013145;28;20473;-50
2023/06/27 11:56:44;;;;;;;5.73;1.70;;;20.30;1.00;;;;;;5014153;28;20187;-51
2023/06/27 11:59:10;;;;;;;3.40;1.60;;;21.20;1.00;;;;;;5017128;28;20420;-49
2023/06/27 12:01:43;;;;;;;4.80;1.70;;;22.40;1.00;;;;;;5017046;28;20426;-48
2023/06/27 12:04:27;;;;;;;4.83;1.40;;;23.50;1.00;;;;;;5016998;28;20554;-49
2023/06/27 12:06:52;;;;;;;9.97;1.70;;;24.70;99.90;;;;;;5016582;28;20888;-46
2023/06/27 12:09:28;;;;;;;6.80;1.70;;;25.50;99.90;;;;;;5017104;28;20709;-47
2023/06/27 12:11:58;;;;;;;3.70;1.60;;;26.20;99.90;;;;;;5017091;28;20515;-48
2023/06/27 12:14:25;;;;;;;1.93;1.33;;;26.30;99.90;;;;;;5016909;28;20460;-49
2023/06/27 12:16:51;;;;;;;5.53;1.50;;;26.00;99.90;;;;;;5017003;28;20758;-48
2023/06/27 12:19:19;;;;;;;4.80;1.60;;;24.00;99.90;;;;;;5016678;28;20424;-50
2023/06/27 12:21:45;;;;;;;6.97;1.40;;;22.30;99.90;;;;;;5016696;28;20194;-50
2023/06/27 12:24:10;;;;;;;5.43;1.77;;;20.40;99.90;;;;;;5016843;28;20500;-49
2023/06/27 12:26:36;;;;;;;4.70;1.63;;;19.00;99.90;;;;;;5016361;28;20187;-50
2023/06/27 12:29:06;;;;;;;4.00;1.47;;;18.20;1.00;;;;;;5016766;28;20267;-51
2023/06/27 12:31:34;;;;;;;3.67;1.60;;;17.70;1.00;;;;;;5016532;28;20656;-51
2023/06/27 12:33:59;;;;;;;2.57;1.50;;;17.40;1.00;;;;;;5016153;28;20890;-50
2023/06/27 12:36:27;;;;;;;2.80;1.60;;;17.20;1.00;;;;;;5016556;28;20431;-50
2023/06/27 12:38:55;;;;;;;6.90;1.70;;;17.20;1.00;;;;;;5016680;28;20218;-51
2023/06/27 12:41:22;;;;;;;8.30;1.80;;;17.80;1.00;;;;;;5016601;28;20426;-52
2023/06/27 12:43:48;;;;;;;3.33;1.43;;;18.80;1.00;;;;;;5016538;28;20427;-51
2023/06/27 12:46:14;;;;;;;2.60;1.30;;;20.30;1.00;;;;;;5016621;28;20771;-51
2023/06/27 12:48:41;;;;;;;3.70;1.33;;;21.60;1.00;;;;;;5015282;28;20274;-51
2023/06/27 12:51:07;;;;;;;4.80;1.43;;;22.10;1.00;;;;;;5015961;28;20419;-51